Terminal Aerodrome Forecast
Issued by NWS

Home | Current Version | Previous Version | Text Only | Print | Product List | Glossary Off
Versions: 1 2 3 4 5 6 7 8 9 10 11 12 13 14

742
FTUS43 KFGF 221721
TAFBJI
TAF
KBJI 221721Z 2218/2318 17013KT P6SM SKC
     FM230100 16007KT P6SM FEW250
     FM230600 17007KT P6SM SCT100 WS020/22040KT
     FM231500 17012KT P6SM SCT100=

USA.gov is the U.S. government's official web portal to all federal, state and local government web resources and services.